Silver Beach, Washington
Current Conditions -  °F | °C
As of 4:53 AM on Thursday 30 Oct 2014 (Local Time) from KBLI Reporting Station
Overcast Overcast  
Wind Chill: 53°   Ceiling: 9000
Heat Index: 53°   Visibility: 10mi
Dew Point: 44°   Wind: 9mph
Humidity: 71%   Direction: 20°NNE
Pressure: 29.92"   Gusts: NA
Location:  48.8172°N, 122.404°W
Report Text: KBLI 301153Z AUTO 02008KT 10SM FEW055 BKN090 OVC110 12/07 A2992 RMK AO2 RAB39E52 SLP140 P0000 60000 70006 T01170067 10117 20094 58022
Loading
Personal Weather Stations






























Interactive Weather Map
Tropical Storm Tracking
New forecast layout! Learn more

10-Day Weather Forecast

Advertisements
Track Severe Weather on mobile